createdAt,value
2022-10-10T00:01:38.257Z,26.08
2022-10-10T00:04:07.916Z,26.09
2022-10-10T00:06:36.524Z,26.12
2022-10-10T00:09:06.798Z,26.16
2022-10-10T00:11:36.337Z,26.22
2022-10-10T00:14:05.011Z,26.30
2022-10-10T00:16:33.435Z,26.35
2022-10-10T00:19:01.851Z,26.40
2022-10-10T00:21:30.223Z,26.42
2022-10-10T00:23:58.687Z,26.46
2022-10-10T00:26:26.991Z,26.49
2022-10-10T00:28:55.485Z,26.55
2022-10-10T00:31:23.891Z,26.60
2022-10-10T00:33:52.383Z,26.65
2022-10-10T00:36:22.287Z,26.68
2022-10-10T00:38:50.711Z,26.70
2022-10-10T00:41:19.223Z,26.70
2022-10-10T00:44:13.773Z,26.69
2022-10-10T00:46:42.891Z,26.68
2022-10-10T00:49:20.855Z,26.66
2022-10-10T00:51:52.757Z,26.67
2022-10-10T00:54:24.484Z,26.65
2022-10-10T00:57:00.226Z,26.67
2022-10-10T00:59:33.643Z,26.70
2022-10-10T01:02:02.185Z,26.76
2022-10-10T01:04:34.858Z,26.80
2022-10-10T01:07:07.222Z,26.86
2022-10-10T01:09:39.274Z,26.90
2022-10-10T01:12:19.434Z,26.94
2022-10-10T01:14:56.212Z,26.99
2022-10-10T01:17:28.544Z,27.03
2022-10-10T01:20:17.987Z,27.04
2022-10-10T01:23:08.790Z,27.11
2022-10-10T01:25:46.864Z,27.19
2022-10-10T01:28:30.751Z,27.30
2022-10-10T01:31:00.927Z,27.34
2022-10-10T01:33:46.885Z,27.39
2022-10-10T01:36:22.675Z,27.47
2022-10-10T01:39:20.180Z,27.47
2022-10-10T01:42:07.496Z,27.50
2022-10-10T01:44:36.403Z,27.53
2022-10-10T01:47:04.844Z,27.56
2022-10-10T01:49:35.938Z,27.61
2022-10-10T01:52:30.197Z,27.65
2022-10-10T01:55:12.585Z,27.68
2022-10-10T01:57:49.565Z,27.74
2022-10-10T02:00:19.786Z,27.78
2022-10-10T02:02:55.598Z,27.83
2022-10-10T02:05:31.227Z,27.88
2022-10-10T02:08:15.327Z,27.94
2022-10-10T02:10:53.892Z,28.01
2022-10-10T02:13:29.553Z,28.07
2022-10-10T02:16:02.165Z,28.14
2022-10-10T02:18:35.017Z,28.20
2022-10-10T02:21:07.802Z,28.26
2022-10-10T02:23:37.139Z,28.32
2022-10-10T02:26:05.996Z,28.38
2022-10-10T02:28:43.058Z,28.41
2022-10-10T02:31:17.519Z,28.43
2022-10-10T02:33:57.608Z,28.46
2022-10-10T02:36:28.338Z,28.52
2022-10-10T02:38:58.829Z,28.56
2022-10-10T02:41:29.000Z,28.59
2022-10-10T02:43:57.977Z,28.62
2022-10-10T02:46:26.609Z,28.66
2022-10-10T02:48:55.055Z,28.68
2022-10-10T02:51:25.648Z,28.72
2022-10-10T02:53:56.990Z,28.77
2022-10-10T02:56:25.396Z,28.81
2022-10-10T02:58:53.747Z,28.86
2022-10-10T03:01:22.183Z,28.88
2022-10-10T03:03:50.836Z,28.90
2022-10-10T03:06:19.222Z,28.92
2022-10-10T03:08:47.531Z,28.93
2022-10-10T03:11:16.019Z,28.94
2022-10-10T03:13:44.445Z,28.94
2022-10-10T03:16:13.094Z,28.93
2022-10-10T03:18:41.653Z,28.94
2022-10-10T03:21:10.090Z,28.95
2022-10-10T03:23:38.630Z,28.99
2022-10-10T03:26:07.274Z,29.07
2022-10-10T03:28:37.654Z,29.18
2022-10-10T03:31:07.037Z,29.26
2022-10-10T03:33:36.531Z,29.32
2022-10-10T03:36:05.465Z,29.36
2022-10-10T03:38:34.029Z,29.37
2022-10-10T03:41:02.384Z,29.40
2022-10-10T03:43:30.769Z,29.41
2022-10-10T03:45:59.121Z,29.42
2022-10-10T03:48:27.536Z,29.46
2022-10-10T03:50:55.885Z,29.50
2022-10-10T03:53:24.613Z,29.57
2022-10-10T03:55:55.816Z,29.62
2022-10-10T03:58:24.411Z,29.68
2022-10-10T04:01:01.093Z,29.79
2022-10-10T04:03:30.735Z,29.83
2022-10-10T04:05:59.488Z,29.89
2022-10-10T04:08:29.169Z,29.93
2022-10-10T04:10:57.884Z,29.93
2022-10-10T04:13:28.458Z,29.99
2022-10-10T04:15:58.301Z,30.07
2022-10-10T04:18:29.510Z,30.10
2022-10-10T04:20:58.037Z,30.21
2022-10-10T04:23:26.421Z,30.25
2022-10-10T04:25:55.905Z,30.29
2022-10-10T04:28:24.372Z,30.34
2022-10-10T04:30:52.903Z,30.37
2022-10-10T04:33:21.288Z,30.37
2022-10-10T04:35:51.130Z,30.36
2022-10-10T04:38:22.242Z,30.34
2022-10-10T04:40:51.836Z,30.31
2022-10-10T04:43:20.608Z,30.26
2022-10-10T04:45:49.180Z,30.21
2022-10-10T04:48:17.558Z,30.17
2022-10-10T04:50:45.952Z,30.12
2022-10-10T04:53:14.347Z,30.10
2022-10-10T04:55:42.771Z,30.09
2022-10-10T04:58:11.213Z,30.10
2022-10-10T05:00:42.958Z,30.12
2022-10-10T05:03:13.529Z,30.14
2022-10-10T05:05:41.894Z,30.23
2022-10-10T05:08:10.247Z,30.28
2022-10-10T05:10:40.195Z,30.36
2022-10-10T05:13:12.081Z,30.45
2022-10-10T05:15:41.196Z,30.53
2022-10-10T05:18:09.840Z,30.62
2022-10-10T05:20:38.444Z,30.70
2022-10-10T05:23:06.871Z,30.73
2022-10-10T05:25:35.283Z,30.82
2022-10-10T05:28:03.558Z,30.91
2022-10-10T05:30:31.890Z,30.88
2022-10-10T05:33:00.755Z,30.79
2022-10-10T05:35:29.078Z,30.75
2022-10-10T05:37:57.593Z,30.74
2022-10-10T05:40:26.383Z,30.75
2022-10-10T05:42:54.900Z,30.72
2022-10-10T05:45:23.275Z,30.74
2022-10-10T05:47:51.732Z,30.79
2022-10-10T05:50:40.712Z,30.81
2022-10-10T05:53:09.106Z,30.78
2022-10-10T05:55:37.681Z,30.80
2022-10-10T05:58:06.913Z,30.75
2022-10-10T06:00:36.098Z,30.71
2022-10-10T06:03:04.691Z,30.65
2022-10-10T06:05:32.976Z,30.63
2022-10-10T06:08:09.246Z,30.58
2022-10-10T06:10:43.931Z,30.60
2022-10-10T06:13:14.019Z,30.56
2022-10-10T06:15:42.514Z,30.59
2022-10-10T06:18:11.826Z,30.56
2022-10-10T06:20:41.767Z,30.55
2022-10-10T06:23:10.774Z,30.48
2022-10-10T06:25:41.261Z,30.41
2022-10-10T06:28:11.671Z,30.36
2022-10-10T06:30:45.125Z,30.28
2022-10-10T06:33:14.185Z,30.24
2022-10-10T06:35:44.547Z,30.24
2022-10-10T06:38:13.488Z,30.20
2022-10-10T06:40:42.312Z,30.17
2022-10-10T06:43:13.182Z,30.19
2022-10-10T06:45:43.681Z,30.21
2022-10-10T06:48:13.904Z,30.17
2022-10-10T06:50:42.296Z,30.08
2022-10-10T06:53:10.745Z,30.02
2022-10-10T06:55:39.125Z,29.94
2022-10-10T06:58:08.681Z,29.91
2022-10-10T07:00:37.066Z,29.91
2022-10-10T07:03:05.567Z,29.95
2022-10-10T07:05:34.124Z,29.93
2022-10-10T07:08:02.483Z,29.93
2022-10-10T07:10:30.961Z,29.97
2022-10-10T07:12:59.354Z,29.95
2022-10-10T07:15:27.827Z,29.89
2022-10-10T07:18:00.210Z,29.81
2022-10-10T07:20:28.664Z,29.78
2022-10-10T07:22:57.077Z,29.79
2022-10-10T07:25:26.221Z,29.84
2022-10-10T07:27:54.676Z,29.90
2022-10-10T07:30:23.119Z,29.90
2022-10-10T07:32:52.015Z,29.87
2022-10-10T07:35:21.004Z,29.82
2022-10-10T07:37:49.748Z,29.77
2022-10-10T07:40:18.174Z,29.71
2022-10-10T07:42:46.553Z,29.64
2022-10-10T07:45:14.918Z,29.61
2022-10-10T07:47:43.298Z,29.59
2022-10-10T07:50:13.622Z,29.53
2022-10-10T07:52:42.704Z,29.44
2022-10-10T07:55:11.955Z,29.39
2022-10-10T07:57:40.392Z,29.30
2022-10-10T08:00:10.894Z,29.22
2022-10-10T08:02:39.301Z,29.17
2022-10-10T08:05:08.173Z,29.15
2022-10-10T08:07:36.722Z,29.14
2022-10-10T08:10:05.780Z,29.19
2022-10-10T08:12:34.066Z,29.21
2022-10-10T08:15:02.662Z,29.22
2022-10-10T08:17:31.122Z,29.26
2022-10-10T08:19:59.487Z,29.23
2022-10-10T08:22:27.908Z,29.23
2022-10-10T08:24:56.636Z,29.19
2022-10-10T08:27:25.498Z,29.14
2022-10-10T08:29:54.073Z,29.09
2022-10-10T08:32:22.610Z,29.07
2022-10-10T08:34:51.767Z,29.04
2022-10-10T08:37:20.430Z,29.05
2022-10-10T08:39:48.909Z,29.03
2022-10-10T08:42:29.265Z,29.02
2022-10-10T08:45:02.754Z,29.05
2022-10-10T08:47:40.027Z,29.01
2022-10-10T08:50:26.805Z,28.98
2022-10-10T08:53:07.966Z,28.94
2022-10-10T08:55:44.860Z,28.93
2022-10-10T08:58:31.711Z,28.96
2022-10-10T09:01:12.159Z,28.96
2022-10-10T09:03:53.220Z,28.95
2022-10-10T09:06:45.609Z,28.93
2022-10-10T09:09:33.193Z,28.92
2022-10-10T09:12:28.524Z,28.88
2022-10-10T09:15:02.349Z,28.83
2022-10-10T09:17:40.539Z,28.77
2022-10-10T09:20:38.143Z,28.76
2022-10-10T09:23:43.180Z,28.69
2022-10-10T09:26:16.051Z,28.62
2022-10-10T09:29:03.327Z,28.57
2022-10-10T09:31:37.191Z,28.50
2022-10-10T09:34:14.138Z,28.46
2022-10-10T09:36:44.124Z,28.44
2022-10-10T09:39:40.123Z,28.41
2022-10-10T09:42:14.799Z,28.38
2022-10-10T09:44:44.742Z,28.34
2022-10-10T09:47:18.325Z,28.29
2022-10-10T09:49:49.949Z,28.25
2022-10-10T09:52:30.485Z,28.18
2022-10-10T09:55:29.088Z,28.12
2022-10-10T09:58:02.606Z,28.08
2022-10-10T10:00:37.940Z,28.00
2022-10-10T10:03:10.968Z,27.95
2022-10-10T10:05:40.691Z,27.91
2022-10-10T10:08:23.258Z,27.85
2022-10-10T10:10:51.811Z,27.80
2022-10-10T10:13:28.482Z,27.76
2022-10-10T10:16:09.271Z,27.72
2022-10-10T10:18:46.560Z,27.66
2022-10-10T10:21:27.006Z,27.62
2022-10-10T10:24:04.718Z,27.58
2022-10-10T10:26:45.723Z,27.52
2022-10-10T10:29:29.921Z,27.48
2022-10-10T10:32:28.658Z,27.43
2022-10-10T10:35:05.165Z,27.37
2022-10-10T10:37:57.838Z,27.32
2022-10-10T10:40:37.607Z,27.28
2022-10-10T10:43:42.431Z,27.23
2022-10-10T10:46:29.087Z,27.18
2022-10-10T10:49:25.638Z,27.14
2022-10-10T10:52:29.875Z,27.08
2022-10-10T10:55:30.690Z,27.03
2022-10-10T11:01:44.915Z,26.90
2022-10-10T11:05:20.780Z,26.84
2022-10-10T11:07:53.951Z,26.77
2022-10-10T11:10:48.466Z,26.70
2022-10-10T11:13:35.715Z,26.65
2022-10-10T11:16:47.446Z,26.57
2022-10-10T11:19:17.088Z,26.52
2022-10-10T11:22:00.696Z,26.46
2022-10-10T11:24:32.170Z,26.40
2022-10-10T11:27:07.466Z,26.37
2022-10-10T11:30:06.238Z,26.32
2022-10-10T11:33:11.393Z,26.28
2022-10-10T11:35:51.082Z,26.23
2022-10-10T11:38:30.214Z,26.18
2022-10-10T11:41:15.085Z,26.13
2022-10-10T11:44:13.384Z,26.10
2022-10-10T11:47:08.434Z,26.07
2022-10-10T11:49:57.517Z,26.04
2022-10-10T11:52:54.247Z,26.02
2022-10-10T11:55:53.255Z,25.97
2022-10-10T11:58:38.501Z,25.95
2022-10-10T12:01:30.213Z,25.93
2022-10-10T12:03:58.878Z,25.92
2022-10-10T12:07:05.531Z,25.90
2022-10-10T12:09:40.632Z,25.90
2022-10-10T12:12:16.183Z,25.88
2022-10-10T12:14:54.950Z,25.86
2022-10-10T12:17:28.613Z,25.84
2022-10-10T12:19:57.936Z,25.82
2022-10-10T12:22:30.874Z,25.79
2022-10-10T12:25:24.059Z,25.76
2022-10-10T12:28:26.430Z,25.74
2022-10-10T12:30:58.461Z,25.73
2022-10-10T12:33:30.347Z,25.69
2022-10-10T12:35:59.224Z,25.67
2022-10-10T12:38:31.488Z,25.64
2022-10-10T12:41:07.053Z,25.62
2022-10-10T12:43:43.426Z,25.57
2022-10-10T12:46:35.248Z,25.55
2022-10-10T12:52:43.311Z,25.48
2022-10-10T12:55:26.217Z,25.45
2022-10-10T12:57:58.910Z,25.42
2022-10-10T13:00:37.258Z,25.39
2022-10-10T13:03:33.317Z,25.37
2022-10-10T13:06:28.378Z,25.33
2022-10-10T13:08:57.690Z,25.30
2022-10-10T13:11:27.734Z,25.28
2022-10-10T13:13:58.666Z,25.24
2022-10-10T13:16:33.765Z,25.21
2022-10-10T13:19:02.402Z,25.21
2022-10-10T13:21:36.171Z,25.17
2022-10-10T13:24:07.493Z,25.15
2022-10-10T13:26:44.725Z,25.14
2022-10-10T13:29:35.987Z,25.12
2022-10-10T13:32:19.745Z,25.11
2022-10-10T13:35:03.470Z,25.08
2022-10-10T13:37:32.650Z,25.07
2022-10-10T13:40:02.146Z,25.04
2022-10-10T13:42:41.464Z,25.03
2022-10-10T13:45:30.068Z,25.01
2022-10-10T13:48:01.964Z,25.00
2022-10-10T13:50:53.495Z,24.98
2022-10-10T13:53:25.685Z,24.96
2022-10-10T13:56:18.077Z,24.94
2022-10-10T13:59:00.223Z,24.92
2022-10-10T14:01:47.884Z,24.91
2022-10-10T14:04:36.809Z,24.89
2022-10-10T14:07:15.560Z,24.86
2022-10-10T14:09:52.621Z,24.85
2022-10-10T14:12:46.091Z,24.83
2022-10-10T14:15:33.138Z,24.81
2022-10-10T14:18:01.660Z,24.77
2022-10-10T14:20:30.153Z,24.76
2022-10-10T14:23:02.135Z,24.73
2022-10-10T14:25:30.626Z,24.72
2022-10-10T14:27:59.074Z,24.69
2022-10-10T14:30:27.475Z,24.67
2022-10-10T14:32:55.868Z,24.65
2022-10-10T14:35:24.456Z,24.64
2022-10-10T14:37:52.812Z,24.62
2022-10-10T14:40:23.702Z,24.60
2022-10-10T14:42:52.097Z,24.59
2022-10-10T14:45:20.511Z,24.58
2022-10-10T14:47:48.924Z,24.58
2022-10-10T14:50:21.048Z,24.57
2022-10-10T14:52:49.540Z,24.55
2022-10-10T14:55:17.915Z,24.54
2022-10-10T14:57:46.349Z,24.53
2022-10-10T15:00:22.871Z,24.53
2022-10-10T15:02:51.458Z,24.52
2022-10-10T15:05:20.248Z,24.51
2022-10-10T15:07:51.366Z,24.52
2022-10-10T15:10:33.392Z,24.53
2022-10-10T15:13:03.306Z,24.52
2022-10-10T15:15:31.854Z,24.54
2022-10-10T15:18:01.209Z,24.54
2022-10-10T15:20:33.494Z,24.55
2022-10-10T15:23:05.330Z,24.56
2022-10-10T15:25:34.294Z,24.56
2022-10-10T15:28:06.342Z,24.57
2022-10-10T15:30:35.952Z,24.57
2022-10-10T15:33:05.873Z,24.57
2022-10-10T15:35:50.605Z,24.57
2022-10-10T15:38:22.703Z,24.56
2022-10-10T15:41:09.909Z,24.54
2022-10-10T15:43:55.491Z,24.53
2022-10-10T15:46:26.102Z,24.52
2022-10-10T15:48:55.297Z,24.51
2022-10-10T15:51:23.682Z,24.49
2022-10-10T15:53:53.117Z,24.48
2022-10-10T15:56:21.511Z,24.47
2022-10-10T15:58:49.954Z,24.45
2022-10-10T16:01:23.037Z,24.42
2022-10-10T16:03:51.700Z,24.41
2022-10-10T16:06:21.973Z,24.40
2022-10-10T16:08:59.279Z,24.38
2022-10-10T16:11:33.146Z,24.38
2022-10-10T16:14:01.588Z,24.34
2022-10-10T16:16:30.191Z,24.34
2022-10-10T16:18:58.694Z,24.33
2022-10-10T16:21:27.388Z,24.32
2022-10-10T16:23:58.124Z,24.33
2022-10-10T16:26:34.072Z,24.32
2022-10-10T16:29:03.305Z,24.32
2022-10-10T16:31:32.059Z,24.31
2022-10-10T16:34:01.362Z,24.32
2022-10-10T16:36:32.635Z,24.30
2022-10-10T16:39:01.369Z,24.31
2022-10-10T16:41:48.991Z,24.30
2022-10-10T16:44:18.736Z,24.30
2022-10-10T16:46:47.510Z,24.27
2022-10-10T16:49:21.434Z,24.27
2022-10-10T16:51:49.938Z,24.27
2022-10-10T16:54:18.397Z,24.26
2022-10-10T16:56:46.813Z,24.26
2022-10-10T16:59:15.207Z,24.26
2022-10-10T17:01:43.562Z,24.26
2022-10-10T17:04:12.065Z,24.27
2022-10-10T17:06:40.491Z,24.26
2022-10-10T17:09:12.322Z,24.29
2022-10-10T17:19:25.520Z,24.30
2022-10-10T17:21:53.794Z,24.29
2022-10-10T17:24:22.166Z,24.30
2022-10-10T17:26:50.641Z,24.31
2022-10-10T17:29:19.155Z,24.31
2022-10-10T17:31:47.547Z,24.31
2022-10-10T17:34:16.661Z,24.31
2022-10-10T17:36:44.985Z,24.32
2022-10-10T17:39:13.370Z,24.30
2022-10-10T17:41:42.055Z,24.30
2022-10-10T17:44:11.446Z,24.30
2022-10-10T17:46:40.313Z,24.30
2022-10-10T17:49:12.182Z,24.30
2022-10-10T17:51:41.771Z,24.29
2022-10-10T17:56:40.044Z,24.29
2022-10-10T17:59:10.396Z,24.27
2022-10-10T18:01:39.704Z,24.26
2022-10-10T18:04:08.875Z,24.25
2022-10-10T18:06:39.127Z,24.24
2022-10-10T18:09:08.333Z,24.23
2022-10-10T18:11:36.753Z,24.23
2022-10-10T18:14:05.453Z,24.21
2022-10-10T18:16:36.162Z,24.20
2022-10-10T18:19:09.102Z,24.18
2022-10-10T18:21:37.727Z,24.16
2022-10-10T18:24:06.310Z,24.15
2022-10-10T18:26:35.884Z,24.11
2022-10-10T18:29:04.348Z,24.09
2022-10-10T18:31:34.941Z,24.07
2022-10-10T18:34:04.535Z,24.05
2022-10-10T18:36:36.118Z,24.03
2022-10-10T18:39:12.506Z,24.01
2022-10-10T18:41:41.500Z,23.98
2022-10-10T18:44:13.332Z,23.95
2022-10-10T18:46:41.867Z,23.94
2022-10-10T18:49:12.590Z,23.94
2022-10-10T18:51:43.947Z,23.92
2022-10-10T18:54:17.758Z,23.91
2022-10-10T18:56:47.985Z,23.91
2022-10-10T18:59:23.097Z,23.90
2022-10-10T19:01:53.325Z,23.89
2022-10-10T19:04:22.323Z,23.89
2022-10-10T19:06:56.189Z,23.90
2022-10-10T19:09:26.308Z,23.89
2022-10-10T19:11:55.015Z,23.87
2022-10-10T19:14:23.416Z,23.87
2022-10-10T19:16:51.957Z,23.86
2022-10-10T19:19:20.805Z,23.86
2022-10-10T19:21:49.828Z,23.86
2022-10-10T19:24:21.880Z,23.85
2022-10-10T19:26:56.632Z,23.84
2022-10-10T19:29:27.009Z,23.84
2022-10-10T19:31:56.893Z,23.83
2022-10-10T19:34:25.621Z,23.83
2022-10-10T19:36:54.644Z,23.81
2022-10-10T19:39:23.038Z,23.81
2022-10-10T19:41:51.482Z,23.81
2022-10-10T19:44:19.927Z,23.80
2022-10-10T19:46:48.421Z,23.79
2022-10-10T19:49:16.834Z,23.76
2022-10-10T19:51:45.239Z,23.75
2022-10-10T19:54:13.633Z,23.73
2022-10-10T19:56:42.026Z,23.71
2022-10-10T19:59:10.465Z,23.69
2022-10-10T20:01:39.130Z,23.67
2022-10-10T20:04:07.659Z,23.66
2022-10-10T20:06:36.001Z,23.61
2022-10-10T20:09:08.462Z,23.61
2022-10-10T20:11:39.835Z,23.59
2022-10-10T20:14:09.070Z,23.57
2022-10-10T20:16:37.524Z,23.56
2022-10-10T20:19:06.069Z,23.53
2022-10-10T20:21:35.631Z,23.52
2022-10-10T20:24:07.506Z,23.50
2022-10-10T20:26:37.169Z,23.49
2022-10-10T20:29:06.322Z,23.48
2022-10-10T20:31:36.564Z,23.44
2022-10-10T20:34:06.348Z,23.43
2022-10-10T20:36:37.550Z,23.42
2022-10-10T20:39:09.535Z,23.41
2022-10-10T20:41:40.106Z,23.38
2022-10-10T20:44:12.161Z,23.38
2022-10-10T20:46:42.999Z,23.37
2022-10-10T20:49:22.459Z,23.35
2022-10-10T20:51:52.732Z,23.35
2022-10-10T20:54:23.015Z,23.35
2022-10-10T20:56:51.940Z,23.34
2022-10-10T20:59:21.962Z,23.33
2022-10-10T21:01:50.600Z,23.32
2022-10-10T21:04:19.071Z,23.32
2022-10-10T21:06:47.503Z,23.30
2022-10-10T21:09:16.836Z,23.29
2022-10-10T21:11:48.692Z,23.25
2022-10-10T21:14:20.055Z,23.25
2022-10-10T21:16:49.335Z,23.23
2022-10-10T21:19:18.221Z,23.22
2022-10-10T21:21:46.823Z,23.22
2022-10-10T21:24:15.928Z,23.20
2022-10-10T21:26:44.701Z,23.20
2022-10-10T21:29:13.236Z,23.18
2022-10-10T21:31:42.451Z,23.18
2022-10-10T21:34:14.880Z,23.16
2022-10-10T21:36:43.329Z,23.17
2022-10-10T21:39:13.308Z,23.16
2022-10-10T21:41:42.430Z,23.16
2022-10-10T21:44:11.705Z,23.16
2022-10-10T21:46:40.029Z,23.14
2022-10-10T21:49:11.440Z,23.15
2022-10-10T21:51:42.543Z,23.13
2022-10-10T21:54:11.598Z,23.12
2022-10-10T21:56:40.679Z,23.12
2022-10-10T21:59:09.746Z,23.13
2022-10-10T22:01:38.471Z,23.12
2022-10-10T22:04:07.107Z,23.13
2022-10-10T22:06:35.576Z,23.14
2022-10-10T22:09:05.005Z,23.13
2022-10-10T22:11:35.406Z,23.15
2022-10-10T22:14:05.036Z,23.14
2022-10-10T22:16:34.855Z,23.15
2022-10-10T22:19:04.280Z,23.15
2022-10-10T22:21:35.745Z,23.15
2022-10-10T22:24:07.472Z,23.12
2022-10-10T22:26:36.374Z,23.12
2022-10-10T22:29:05.731Z,23.11
2022-10-10T22:31:38.436Z,23.11
2022-10-10T22:34:07.913Z,23.11
2022-10-10T22:36:36.765Z,23.11
2022-10-10T22:39:06.577Z,23.12
2022-10-10T22:41:34.941Z,23.10
2022-10-10T22:44:04.225Z,23.07
2022-10-10T22:46:32.588Z,23.07
2022-10-10T22:49:00.978Z,23.06
2022-10-10T22:51:29.498Z,23.02
2022-10-10T22:53:58.303Z,23.00
2022-10-10T22:56:26.705Z,22.96
2022-10-10T22:58:55.041Z,22.93
2022-10-10T23:01:26.804Z,22.90
2022-10-10T23:03:59.870Z,22.88
2022-10-10T23:06:28.860Z,22.87
2022-10-10T23:08:57.481Z,22.86
2022-10-10T23:15:07.142Z,22.86
2022-10-10T23:17:36.125Z,22.84
2022-10-10T23:20:05.108Z,22.83
2022-10-10T23:22:33.412Z,22.83
2022-10-10T23:25:01.828Z,22.82
2022-10-10T23:27:30.180Z,22.81
2022-10-10T23:29:58.563Z,22.80
2022-10-10T23:32:30.237Z,22.81
2022-10-10T23:34:58.562Z,22.83
2022-10-10T23:37:28.675Z,22.83
2022-10-10T23:39:57.178Z,22.85
2022-10-10T23:42:25.645Z,22.85
2022-10-10T23:44:54.045Z,22.88
2022-10-10T23:47:22.602Z,22.88
2022-10-10T23:49:50.993Z,22.90
2022-10-10T23:52:19.357Z,22.92
2022-10-10T23:54:47.773Z,22.94
2022-10-10T23:57:16.085Z,22.98
2022-10-10T23:59:45.050Z,23.02
